Time,TemperatureF,DewpointF,PressureIn,WindDirection,WindDirectionDegrees,WindSpeedMPH,WindSpeedGustMPH,Humidity,HourlyPrecipIn,Conditions,Clouds,dailyrainin,SolarRadiationWatts/m^2,SoftwareType,DateUTC
2013-11-26 00:09:00,29.3,24.0,30.13,East,86,0.0,-999.0,82,-99.99,,,0.00,0,weatherlink.com 1.10,2013-11-26 06:09:00,
2013-11-26 00:24:00,29.0,25.0,30.13,East,86,0.0,-999.0,83,-99.99,,,0.00,0,weatherlink.com 1.10,2013-11-26 06:24:00,
2013-11-26 00:39:00,29.1,24.0,30.12,East,86,0.0,-999.0,82,-99.99,,,0.00,0,weatherlink.com 1.10,2013-11-26 06:39:00,
2013-11-26 00:54:00,29.1,24.0,30.13,East,86,0.0,-999.0,82,-99.99,,,0.00,0,weatherlink.com 1.10,2013-11-26 06:54:00,
2013-11-26 01:09:00,28.8,24.0,30.13,East,86,0.0,-999.0,82,-99.99,,,0.00,0,weatherlink.com 1.10,2013-11-26 07:09:00,
2013-11-26 01:24:00,28.4,24.0,30.13,East,86,0.0,-999.0,82,-99.99,,,0.00,0,weatherlink.com 1.10,2013-11-26 07:24:00,
2013-11-26 01:39:00,28.1,23.0,30.13,East,86,0.0,-999.0,82,-99.99,,,0.00,0,weatherlink.com 1.10,2013-11-26 07:39:00,
2013-11-26 01:54:00,27.6,23.0,30.13,East,86,0.0,-999.0,83,-99.99,,,0.00,0,weatherlink.com 1.10,2013-11-26 07:54:00,
2013-11-26 02:09:00,27.6,23.0,30.13,East,86,0.0,-999.0,83,-99.99,,,0.00,0,weatherlink.com 1.10,2013-11-26 08:09:00,
2013-11-26 02:24:00,27.5,23.0,30.14,East,86,0.0,-999.0,83,-99.99,,,0.00,0,weatherlink.com 1.10,2013-11-26 08:24:00,
2013-11-26 02:39:00,27.2,23.0,30.14,East,86,0.0,-999.0,83,-99.99,,,0.00,0,weatherlink.com 1.10,2013-11-26 08:39:00,
2013-11-26 02:54:00,27.0,23.0,30.13,East,86,0.0,-999.0,83,-99.99,,,0.00,0,weatherlink.com 1.10,2013-11-26 08:54:00,
2013-11-26 03:09:00,26.9,22.0,30.13,East,99,0.0,-999.0,83,-99.99,,,0.00,0,weatherlink.com 1.10,2013-11-26 09:09:00,
2013-11-26 03:24:00,26.6,22.0,30.13,SE,126,0.0,-999.0,83,-99.99,,,0.00,0,weatherlink.com 1.10,2013-11-26 09:24:00,
2013-11-26 03:39:00,26.3,22.0,30.12,SE,126,0.0,-999.0,83,-99.99,,,0.00,0,weatherlink.com 1.10,2013-11-26 09:39:00,
2013-11-26 03:54:00,25.8,21.0,30.12,SE,144,0.0,-999.0,83,-99.99,,,0.00,0,weatherlink.com 1.10,2013-11-26 09:54:00,
2013-11-26 04:09:00,25.4,21.0,30.12,SE,144,0.0,-999.0,83,-99.99,,,0.00,0,weatherlink.com 1.10,2013-11-26 10:09:00,
2013-11-26 04:24:00,25.3,21.0,30.12,SE,144,0.0,-999.0,83,-99.99,,,0.00,0,weatherlink.com 1.10,2013-11-26 10:24:00,
2013-11-26 04:39:00,25.4,21.0,30.12,SE,143,0.0,-999.0,82,-99.99,,,0.00,0,weatherlink.com 1.10,2013-11-26 10:39:00,
2013-11-26 04:54:00,25.8,21.0,30.12,SE,143,0.0,-999.0,82,-99.99,,,0.00,0,weatherlink.com 1.10,2013-11-26 10:54:00,
2013-11-26 05:09:00,26.1,21.0,30.14,SE,141,0.0,-999.0,81,-99.99,,,0.00,0,weatherlink.com 1.10,2013-11-26 11:09:00,
2013-11-26 05:24:00,26.4,21.0,30.14,SE,141,0.0,-999.0,81,-99.99,,,0.00,0,weatherlink.com 1.10,2013-11-26 11:24:00,
2013-11-26 05:39:00,26.7,22.0,30.15,SE,142,0.0,-999.0,81,-99.99,,,0.00,0,weatherlink.com 1.10,2013-11-26 11:39:00,
2013-11-26 05:54:00,27.0,22.0,30.15,SE,142,0.0,-999.0,80,-99.99,,,0.00,0,weatherlink.com 1.10,2013-11-26 11:54:00,
2013-11-26 06:09:00,27.2,22.0,30.16,SE,142,0.0,-999.0,80,-99.99,,,0.00,0,weatherlink.com 1.10,2013-11-26 12:09:00,
2013-11-26 06:24:00,27.2,22.0,30.16,SE,139,0.0,-999.0,81,-99.99,,,0.00,0,weatherlink.com 1.10,2013-11-26 12:24:00,
2013-11-26 06:39:00,27.3,22.0,30.16,SE,139,0.0,-999.0,81,-99.99,,,0.00,0,weatherlink.com 1.10,2013-11-26 12:39:00,
2013-11-26 06:54:00,27.5,22.0,30.17,SE,139,0.0,-999.0,81,-99.99,,,0.00,0,weatherlink.com 1.10,2013-11-26 12:54:00,
2013-11-26 07:09:00,27.8,22.0,30.18,SE,138,0.0,-999.0,80,-99.99,,,0.00,0,weatherlink.com 1.10,2013-11-26 13:09:00,
2013-11-26 07:24:00,27.9,23.0,30.18,SE,138,0.0,-999.0,80,-99.99,,,0.00,0,weatherlink.com 1.10,2013-11-26 13:24:00,
2013-11-26 07:39:00,28.1,23.0,30.18,SE,138,0.0,-999.0,80,-99.99,,,0.00,7,weatherlink.com 1.10,2013-11-26 13:39:00,
2013-11-26 07:54:00,28.4,23.0,30.18,SE,138,0.0,-999.0,80,-99.99,,,0.00,18,weatherlink.com 1.10,2013-11-26 13:54:00,
2013-11-26 08:09:00,28.7,23.0,30.19,SE,139,0.0,-999.0,80,-99.99,,,0.00,12,weatherlink.com 1.10,2013-11-26 14:09:00,
2013-11-26 08:24:00,29.1,22.0,30.21,SSE,163,5.0,-999.0,76,-99.99,,,0.00,25,weatherlink.com 1.10,2013-11-26 14:24:00,
2013-11-26 08:39:00,29.4,22.0,30.21,SSE,148,4.0,-999.0,73,-99.99,,,0.00,60,weatherlink.com 1.10,2013-11-26 14:39:00,
2013-11-26 08:54:00,29.7,22.0,30.21,South,176,2.0,-999.0,73,-99.99,,,0.00,144,weatherlink.com 1.10,2013-11-26 14:54:00,
2013-11-26 09:09:00,30.3,22.0,30.21,SE,134,5.0,-999.0,71,-99.99,,,0.00,54,weatherlink.com 1.10,2013-11-26 15:09:00,
2013-11-26 09:24:00,30.0,22.0,30.22,SSE,166,3.0,-999.0,71,-99.99,,,0.00,46,weatherlink.com 1.10,2013-11-26 15:24:00,
2013-11-26 09:39:00,29.7,21.0,30.22,SSE,154,4.0,-999.0,70,-99.99,,,0.00,155,weatherlink.com 1.10,2013-11-26 15:39:00,
2013-11-26 09:54:00,29.5,20.0,30.23,South,190,6.0,-999.0,68,-99.99,,,0.00,86,weatherlink.com 1.10,2013-11-26 15:54:00,
2013-11-26 10:09:00,29.5,18.0,30.25,SSE,157,3.0,-999.0,63,-99.99,,,0.00,422,weatherlink.com 1.10,2013-11-26 16:09:00,
2013-11-26 10:24:00,30.4,18.0,30.25,SSE,157,4.0,-999.0,60,-99.99,,,0.00,406,weatherlink.com 1.10,2013-11-26 16:24:00,
2013-11-26 10:39:00,29.7,17.0,30.25,SE,139,6.0,-999.0,60,-99.99,,,0.00,118,weatherlink.com 1.10,2013-11-26 16:39:00,
2013-11-26 10:55:00,27.8,14.0,30.26,SSE,168,7.0,-999.0,57,-99.99,,,0.00,448,weatherlink.com 1.10,2013-11-26 16:55:00,
2013-11-26 11:10:00,28.1,14.0,30.25,South,171,5.0,-999.0,56,-99.99,,,0.00,98,weatherlink.com 1.10,2013-11-26 17:10:00,
2013-11-26 11:25:00,28.5,13.0,30.26,SSE,159,12.0,-999.0,52,-99.99,,,0.00,461,weatherlink.com 1.10,2013-11-26 17:25:00,
2013-11-26 11:40:00,28.7,12.0,30.27,SSE,165,5.0,-999.0,50,-99.99,,,0.00,469,weatherlink.com 1.10,2013-11-26 17:40:00,
2013-11-26 11:55:00,28.4,13.0,30.27,SSE,157,9.0,-999.0,52,-99.99,,,0.00,469,weatherlink.com 1.10,2013-11-26 17:55:00,
2013-11-26 12:10:00,28.7,12.0,30.27,SSE,159,4.0,-999.0,50,-99.99,,,0.00,403,weatherlink.com 1.10,2013-11-26 18:10:00,
2013-11-26 12:25:00,27.9,12.0,30.25,SE,132,2.0,-999.0,52,-99.99,,,0.00,315,weatherlink.com 1.10,2013-11-26 18:25:00,
2013-11-26 12:40:00,27.3,12.0,30.25,South,169,6.0,-999.0,52,-99.99,,,0.00,70,weatherlink.com 1.10,2013-11-26 18:40:00,
2013-11-26 12:55:00,26.9,11.0,30.25,SE,142,11.0,-999.0,51,-99.99,,,0.00,104,weatherlink.com 1.10,2013-11-26 18:55:00,
2013-11-26 13:10:00,26.6,10.0,30.26,SSE,148,8.0,-999.0,50,-99.99,,,0.00,176,weatherlink.com 1.10,2013-11-26 19:10:00,
2013-11-26 13:25:00,26.4,9.0,30.26,SSE,147,10.0,-999.0,49,-99.99,,,0.00,105,weatherlink.com 1.10,2013-11-26 19:25:00,
2013-11-26 13:40:00,26.9,10.0,30.26,SSE,168,14.0,-999.0,50,-99.99,,,0.00,186,weatherlink.com 1.10,2013-11-26 19:40:00,
2013-11-26 13:55:00,26.9,10.0,30.26,SSW,196,14.0,-999.0,50,-99.99,,,0.00,144,weatherlink.com 1.10,2013-11-26 19:55:00,
2013-11-26 14:10:00,27.2,10.0,30.26,SE,146,3.0,-999.0,49,-99.99,,,0.00,216,weatherlink.com 1.10,2013-11-26 20:10:00,
2013-11-26 14:40:00,27.2,9.0,30.27,SSE,165,4.0,-999.0,47,-99.99,,,0.00,271,weatherlink.com 1.10,2013-11-26 20:40:00,
2013-11-26 14:55:00,26.9,9.0,30.27,SSE,160,5.0,-999.0,48,-99.99,,,0.00,246,weatherlink.com 1.10,2013-11-26 20:55:00,
2013-11-26 15:10:00,27.5,9.0,30.27,South,171,4.0,-999.0,45,-99.99,,,0.00,209,weatherlink.com 1.10,2013-11-26 21:10:00,
2013-11-26 15:25:00,27.2,9.0,30.27,SE,136,2.0,-999.0,47,-99.99,,,0.00,169,weatherlink.com 1.10,2013-11-26 21:25:00,
2013-11-26 15:40:00,26.9,9.0,30.27,SSE,163,4.0,-999.0,46,-99.99,,,0.00,86,weatherlink.com 1.10,2013-11-26 21:40:00,
2013-11-26 15:55:00,26.7,8.0,30.28,SSE,165,11.0,-999.0,46,-99.99,,,0.00,72,weatherlink.com 1.10,2013-11-26 21:55:00,
2013-11-26 16:10:00,26.4,8.0,30.29,South,183,3.0,-999.0,45,-99.99,,,0.00,32,weatherlink.com 1.10,2013-11-26 22:10:00,
2013-11-26 16:25:00,25.7,7.0,30.29,South,171,5.0,-999.0,45,-99.99,,,0.00,14,weatherlink.com 1.10,2013-11-26 22:25:00,
2013-11-26 16:40:00,25.1,6.0,30.29,SSE,154,2.0,-999.0,45,-99.99,,,0.00,7,weatherlink.com 1.10,2013-11-26 22:40:00,
2013-11-26 16:55:00,24.7,7.0,30.29,SE,143,4.0,-999.0,47,-99.99,,,0.00,0,weatherlink.com 1.10,2013-11-26 22:55:00,
2013-11-26 17:10:00,24.4,7.0,30.30,SSE,154,0.0,-999.0,47,-99.99,,,0.00,0,weatherlink.com 1.10,2013-11-26 23:10:00,
2013-11-26 17:25:00,24.1,7.0,30.31,South,169,0.0,-999.0,49,-99.99,,,0.00,0,weatherlink.com 1.10,2013-11-26 23:25:00,
2013-11-26 17:40:00,23.9,7.0,30.31,SE,143,3.0,-999.0,49,-99.99,,,0.00,0,weatherlink.com 1.10,2013-11-26 23:40:00,
2013-11-26 17:55:00,23.8,8.0,30.31,SSE,155,3.0,-999.0,50,-99.99,,,0.00,0,weatherlink.com 1.10,2013-11-26 23:55:00,
2013-11-26 18:10:00,23.5,8.0,30.31,SSE,167,3.0,-999.0,51,-99.99,,,0.00,0,weatherlink.com 1.10,2013-11-27 00:10:00,
2013-11-26 18:25:00,23.2,7.0,30.32,SSE,157,2.0,-999.0,51,-99.99,,,0.00,0,weatherlink.com 1.10,2013-11-27 00:25:00,
2013-11-26 18:40:00,23.0,8.0,30.32,SE,144,1.0,-999.0,52,-99.99,,,0.00,0,weatherlink.com 1.10,2013-11-27 00:40:00,
2013-11-26 18:55:00,22.7,8.0,30.33,SSE,161,2.0,-999.0,53,-99.99,,,0.00,0,weatherlink.com 1.10,2013-11-27 00:55:00,
2013-11-26 19:10:00,22.2,8.0,30.33,SSE,164,0.0,-999.0,55,-99.99,,,0.00,0,weatherlink.com 1.10,2013-11-27 01:10:00,
2013-11-26 19:25:00,21.9,8.0,30.33,South,182,0.0,-999.0,55,-99.99,,,0.00,0,weatherlink.com 1.10,2013-11-27 01:25:00,
2013-11-26 19:40:00,21.6,8.0,30.34,SE,142,0.0,-999.0,56,-99.99,,,0.00,0,weatherlink.com 1.10,2013-11-27 01:40:00,
2013-11-26 19:55:00,21.1,8.0,30.34,SE,142,0.0,-999.0,56,-99.99,,,0.00,0,weatherlink.com 1.10,2013-11-27 01:55:00,
2013-11-26 20:10:00,20.8,8.0,30.34,SSE,167,0.0,-999.0,57,-99.99,,,0.00,0,weatherlink.com 1.10,2013-11-27 02:10:00,
2013-11-26 20:25:00,20.3,8.0,30.35,SSE,167,0.0,-999.0,58,-99.99,,,0.00,0,weatherlink.com 1.10,2013-11-27 02:25:00,
2013-11-26 20:40:00,20.2,8.0,30.35,SSE,167,0.0,-999.0,59,-99.99,,,0.00,0,weatherlink.com 1.10,2013-11-27 02:40:00,
2013-11-26 20:55:00,19.9,8.0,30.34,SSE,167,0.0,-999.0,59,-99.99,,,0.00,0,weatherlink.com 1.10,2013-11-27 02:55:00,
2013-11-26 21:10:00,19.5,8.0,30.34,South,175,0.0,-999.0,60,-99.99,,,0.00,0,weatherlink.com 1.10,2013-11-27 03:10:00,
2013-11-26 21:26:00,19.4,8.0,30.35,SSE,148,0.0,-999.0,61,-99.99,,,0.00,0,weatherlink.com 1.10,2013-11-27 03:26:00,
2013-11-26 21:41:00,19.1,8.0,30.36,SSE,148,0.0,-999.0,62,-99.99,,,0.00,0,weatherlink.com 1.10,2013-11-27 03:41:00,
2013-11-26 21:56:00,18.8,8.0,30.36,SSE,148,0.0,-999.0,62,-99.99,,,0.00,0,weatherlink.com 1.10,2013-11-27 03:56:00,
2013-11-26 22:11:00,18.4,8.0,30.36,SSE,148,0.0,-999.0,63,-99.99,,,0.00,0,weatherlink.com 1.10,2013-11-27 04:11:00,
2013-11-26 22:26:00,18.1,8.0,30.36,SSE,148,0.0,-999.0,64,-99.99,,,0.00,0,weatherlink.com 1.10,2013-11-27 04:26:00,
2013-11-26 22:41:00,17.8,8.0,30.36,SSE,148,0.0,-999.0,65,-99.99,,,0.00,0,weatherlink.com 1.10,2013-11-27 04:41:00,
2013-11-26 22:56:00,18.0,8.0,30.36,SSE,165,2.0,-999.0,64,-99.99,,,0.00,0,weatherlink.com 1.10,2013-11-27 04:56:00,
2013-11-26 23:11:00,18.1,7.0,30.36,SSE,165,0.0,-999.0,63,-99.99,,,0.00,0,weatherlink.com 1.10,2013-11-27 05:11:00,
2013-11-26 23:26:00,18.0,8.0,30.36,SSE,166,0.0,-999.0,64,-99.99,,,0.00,0,weatherlink.com 1.10,2013-11-27 05:26:00,
2013-11-26 23:41:00,17.7,7.0,30.36,SE,146,0.0,-999.0,64,-99.99,,,0.00,0,weatherlink.com 1.10,2013-11-27 05:41:00,
2013-11-26 23:56:00,17.5,8.0,30.36,SSE,163,0.0,-999.0,65,-99.99,,,0.00,0,weatherlink.com 1.10,2013-11-27 05:56:00,